Quincy, WA

9:19 PM PDT on September 19, 2014 (GMT -0700)
Pangborn Memorial | Change Station
CLOSE
Current Station
Airport
Location: Wenatchee,
Elevation: 1247 ft
Nearby Weather Stations

Elev 1247 ft 47.40 °N, 120.21 °W | Updated 24 minutes ago

Clear
Clear
73 °F
Feels Like 73 °F
N
14
Wind Variable Wind from West

Today
High -- | Low -- °F
--% Chance of Precip.
Yesterday
High -- | Low -- °F
Precip. -- in
6:42 AM 7:03 PM
Waning Crescent, 15% visible
Pressure 30.01 in
Visibility 10.0 miles
Clouds Clear
Dew Point 49 °F
Humidity 42%
Rainfall 0.00 in
Snow Depth 0 in , 0 in , 0 in
UV 0 out of 12
Pollen 2.90 out of 12
Air Quality Not available.
Flu Activity Not available.
METAR KEAT 200355Z AUTO 28012KT 10SM CLR 23/09 A3004 RMK AO2 SLP163 T02280094

More Conditions Fewer Conditions

Pressure 30.01 in
Visibility 10.0 miles
Clouds Clear
Dew Point 49 °F
Humidity 42%
Rainfall 0.00 in
Snow Depth 0 in , 0 in , 0 in
UV 0 out of 12
Pollen 2.90 out of 12
Air Quality Not available.
Flu Activity Not available.
METAR KEAT 200355Z AUTO 28012KT 10SM CLR 23/09 A3004 RMK AO2 SLP163 T02280094

More Conditions Fewer Conditions

10-Day Weather Forecast

Almanac

Astronomy

Sep. 19, 2014 Rise Set
Actual Time 6:42 AM PDT 7:03 PM PDT
Civil Twilight 6:11 AM PDT 7:33 PM PDT
Nautical Twilight 5:35 AM PDT 8:09 PM PDT
Astronomical Twilight 4:58 AM PDT 8:46 PM PDT
Moon 2:18 AM PDT (9/19) 4:46 PM PDT (9/19)
Length of Visible Light 13h 21m
Length of Day
12h 20m
Tomorrow will be 3m 22s shorter.
Waning Crescent, 15% of the Moon is Illuminated
Sep 20
Waning Crescent
Sep 24
New
Oct 1
First Quarter
Oct 8
Full
Oct 15
Last Quarter

Today's Extremes

State Highs State Lows

Community

WunderPhotos

Upload Photos

1,754,777 photos uploaded!

WunderBlogs® & News

Nearby

Snow Depth

Station Depth Elevation
Lost Horse 0 in 5000 ft
Bunchgrass Meadow 0 in 5000 ft
June Lake 0 in 3340 ft
Dungeness 0 in 4100 ft
Skookum Creek 0 in 3920 ft

Earthquake Activity

City Distance Mag. Time & Date
No recent earthquake activity has been reported nearby.
Minimum magnitude displayed is 2.5.

Coastal Water Temperatures

Place Temperature
No Stations Reporting

Nearby Weather Stations